sensor_id;sensor_type;location;lat;lon;timestamp;P1;durP1;ratioP1;P2;durP2;ratioP2
21032;SDS011;10675;47.976;7.824;2022-10-31T00:01:53;9.37;;;2.83;;
21032;SDS011;10675;47.976;7.824;2022-10-31T00:04:19;8.50;;;3.53;;
21032;SDS011;10675;47.976;7.824;2022-10-31T00:06:44;7.13;;;3.57;;
21032;SDS011;10675;47.976;7.824;2022-10-31T00:09:10;5.17;;;3.40;;
21032;SDS011;10675;47.976;7.824;2022-10-31T00:11:36;5.33;;;3.43;;
21032;SDS011;10675;47.976;7.824;2022-10-31T00:14:02;6.07;;;3.23;;
21032;SDS011;10675;47.976;7.824;2022-10-31T00:16:28;5.00;;;3.20;;
21032;SDS011;10675;47.976;7.824;2022-10-31T00:18:55;4.17;;;2.50;;
21032;SDS011;10675;47.976;7.824;2022-10-31T00:21:23;4.20;;;3.07;;
21032;SDS011;10675;47.976;7.824;2022-10-31T00:23:49;3.60;;;2.50;;
21032;SDS011;10675;47.976;7.824;2022-10-31T00:26:14;5.60;;;1.93;;
21032;SDS011;10675;47.976;7.824;2022-10-31T00:28:40;2.00;;;1.70;;
21032;SDS011;10675;47.976;7.824;2022-10-31T00:31:07;4.20;;;1.50;;
21032;SDS011;10675;47.976;7.824;2022-10-31T00:33:35;5.57;;;1.87;;
21032;SDS011;10675;47.976;7.824;2022-10-31T00:36:02;6.87;;;1.97;;
21032;SDS011;10675;47.976;7.824;2022-10-31T00:38:29;4.93;;;1.57;;
21032;SDS011;10675;47.976;7.824;2022-10-31T00:40:55;2.27;;;1.67;;
21032;SDS011;10675;47.976;7.824;2022-10-31T00:43:20;1.73;;;1.60;;
21032;SDS011;10675;47.976;7.824;2022-10-31T00:45:46;1.60;;;1.50;;
21032;SDS011;10675;47.976;7.824;2022-10-31T00:48:12;6.37;;;1.93;;
21032;SDS011;10675;47.976;7.824;2022-10-31T00:50:38;1.83;;;1.50;;
21032;SDS011;10675;47.976;7.824;2022-10-31T00:53:04;3.73;;;1.67;;
21032;SDS011;10675;47.976;7.824;2022-10-31T00:55:30;3.50;;;1.70;;
21032;SDS011;10675;47.976;7.824;2022-10-31T00:57:55;2.43;;;1.50;;
21032;SDS011;10675;47.976;7.824;2022-10-31T01:00:21;2.47;;;1.50;;
21032;SDS011;10675;47.976;7.824;2022-10-31T01:02:47;1.93;;;1.10;;
21032;SDS011;10675;47.976;7.824;2022-10-31T01:05:12;2.57;;;1.57;;
21032;SDS011;10675;47.976;7.824;2022-10-31T01:07:38;1.43;;;1.30;;
21032;SDS011;10675;47.976;7.824;2022-10-31T01:10:05;1.37;;;1.27;;
21032;SDS011;10675;47.976;7.824;2022-10-31T01:12:43;1.33;;;1.23;;
21032;SDS011;10675;47.976;7.824;2022-10-31T01:15:11;4.60;;;1.70;;
21032;SDS011;10675;47.976;7.824;2022-10-31T01:17:38;2.33;;;1.17;;
21032;SDS011;10675;47.976;7.824;2022-10-31T01:20:04;2.37;;;1.50;;
21032;SDS011;10675;47.976;7.824;2022-10-31T01:22:31;3.53;;;1.70;;
21032;SDS011;10675;47.976;7.824;2022-10-31T01:24:57;2.50;;;1.33;;
21032;SDS011;10675;47.976;7.824;2022-10-31T01:27:22;3.13;;;1.53;;
21032;SDS011;10675;47.976;7.824;2022-10-31T01:29:48;4.83;;;1.70;;
21032;SDS011;10675;47.976;7.824;2022-10-31T01:32:14;3.83;;;1.60;;
21032;SDS011;10675;47.976;7.824;2022-10-31T01:34:40;3.37;;;1.70;;
21032;SDS011;10675;47.976;7.824;2022-10-31T01:37:05;5.13;;;1.60;;
21032;SDS011;10675;47.976;7.824;2022-10-31T01:39:31;1.70;;;1.60;;
21032;SDS011;10675;47.976;7.824;2022-10-31T01:41:57;2.57;;;1.43;;
21032;SDS011;10675;47.976;7.824;2022-10-31T01:46:52;2.50;;;1.50;;
21032;SDS011;10675;47.976;7.824;2022-10-31T01:49:24;3.17;;;1.40;;
21032;SDS011;10675;47.976;7.824;2022-10-31T01:51:56;1.30;;;1.20;;
21032;SDS011;10675;47.976;7.824;2022-10-31T01:54:30;1.90;;;1.30;;
21032;SDS011;10675;47.976;7.824;2022-10-31T01:56:58;3.60;;;1.43;;
21032;SDS011;10675;47.976;7.824;2022-10-31T01:59:25;3.37;;;1.40;;
21032;SDS011;10675;47.976;7.824;2022-10-31T02:01:54;1.57;;;1.20;;
21032;SDS011;10675;47.976;7.824;2022-10-31T02:04:20;1.50;;;1.40;;
21032;SDS011;10675;47.976;7.824;2022-10-31T02:06:51;1.70;;;1.13;;
21032;SDS011;10675;47.976;7.824;2022-10-31T02:09:24;3.30;;;1.40;;
21032;SDS011;10675;47.976;7.824;2022-10-31T02:11:51;2.83;;;1.23;;
21032;SDS011;10675;47.976;7.824;2022-10-31T02:14:20;2.57;;;1.30;;
21032;SDS011;10675;47.976;7.824;2022-10-31T02:16:48;2.33;;;1.27;;
21032;SDS011;10675;47.976;7.824;2022-10-31T02:19:15;1.93;;;1.60;;
21032;SDS011;10675;47.976;7.824;2022-10-31T02:22:16;2.43;;;1.40;;
21032;SDS011;10675;47.976;7.824;2022-10-31T02:24:58;5.63;;;1.70;;
21032;SDS011;10675;47.976;7.824;2022-10-31T02:30:28;2.10;;;1.37;;
21032;SDS011;10675;47.976;7.824;2022-10-31T02:33:28;1.77;;;1.67;;
21032;SDS011;10675;47.976;7.824;2022-10-31T02:36:10;2.17;;;1.40;;
21032;SDS011;10675;47.976;7.824;2022-10-31T02:44:18;3.10;;;1.23;;
21032;SDS011;10675;47.976;7.824;2022-10-31T02:46:57;3.97;;;1.30;;
21032;SDS011;10675;47.976;7.824;2022-10-31T02:49:40;3.40;;;1.53;;
21032;SDS011;10675;47.976;7.824;2022-10-31T02:54:50;3.80;;;1.20;;
21032;SDS011;10675;47.976;7.824;2022-10-31T02:57:17;2.00;;;1.33;;
21032;SDS011;10675;47.976;7.824;2022-10-31T02:59:47;4.87;;;1.50;;
21032;SDS011;10675;47.976;7.824;2022-10-31T03:05:23;2.30;;;1.87;;
21032;SDS011;10675;47.976;7.824;2022-10-31T03:08:14;1.83;;;1.40;;
21032;SDS011;10675;47.976;7.824;2022-10-31T03:11:03;3.07;;;1.57;;
21032;SDS011;10675;47.976;7.824;2022-10-31T03:16:14;3.13;;;1.17;;
21032;SDS011;10675;47.976;7.824;2022-10-31T03:18:51;2.33;;;1.17;;
21032;SDS011;10675;47.976;7.824;2022-10-31T03:21:23;3.80;;;1.73;;
21032;SDS011;10675;47.976;7.824;2022-10-31T03:23:55;2.03;;;1.30;;
21032;SDS011;10675;47.976;7.824;2022-10-31T03:26:22;2.80;;;1.43;;
21032;SDS011;10675;47.976;7.824;2022-10-31T03:29:24;2.13;;;1.37;;
21032;SDS011;10675;47.976;7.824;2022-10-31T03:32:06;1.60;;;1.40;;
21032;SDS011;10675;47.976;7.824;2022-10-31T03:34:42;1.43;;;1.30;;
21032;SDS011;10675;47.976;7.824;2022-10-31T03:37:10;1.50;;;1.40;;
21032;SDS011;10675;47.976;7.824;2022-10-31T03:39:40;2.30;;;1.60;;
21032;SDS011;10675;47.976;7.824;2022-10-31T03:42:15;1.60;;;1.50;;
21032;SDS011;10675;47.976;7.824;2022-10-31T03:44:46;1.40;;;1.30;;
21032;SDS011;10675;47.976;7.824;2022-10-31T03:47:15;3.00;;;1.50;;
21032;SDS011;10675;47.976;7.824;2022-10-31T03:49:41;5.53;;;1.53;;
21032;SDS011;10675;47.976;7.824;2022-10-31T03:54:53;2.83;;;1.40;;
21032;SDS011;10675;47.976;7.824;2022-10-31T03:57:42;1.37;;;1.07;;
21032;SDS011;10675;47.976;7.824;2022-10-31T04:00:12;4.93;;;1.60;;
21032;SDS011;10675;47.976;7.824;2022-10-31T04:02:41;1.63;;;1.33;;
21032;SDS011;10675;47.976;7.824;2022-10-31T04:05:10;1.80;;;1.43;;
21032;SDS011;10675;47.976;7.824;2022-10-31T04:07:39;3.67;;;1.53;;
21032;SDS011;10675;47.976;7.824;2022-10-31T04:10:09;3.57;;;1.37;;
21032;SDS011;10675;47.976;7.824;2022-10-31T04:12:38;2.67;;;1.50;;
21032;SDS011;10675;47.976;7.824;2022-10-31T04:15:05;2.03;;;1.20;;
21032;SDS011;10675;47.976;7.824;2022-10-31T04:17:33;2.30;;;1.47;;
21032;SDS011;10675;47.976;7.824;2022-10-31T04:20:02;4.17;;;1.43;;
21032;SDS011;10675;47.976;7.824;2022-10-31T04:22:28;4.43;;;1.60;;
21032;SDS011;10675;47.976;7.824;2022-10-31T04:24:54;4.90;;;1.70;;
21032;SDS011;10675;47.976;7.824;2022-10-31T04:27:19;3.17;;;1.60;;
21032;SDS011;10675;47.976;7.824;2022-10-31T04:29:45;2.57;;;1.20;;
21032;SDS011;10675;47.976;7.824;2022-10-31T04:32:10;1.50;;;1.40;;
21032;SDS011;10675;47.976;7.824;2022-10-31T04:34:36;4.77;;;1.90;;
21032;SDS011;10675;47.976;7.824;2022-10-31T04:37:01;4.10;;;1.50;;
21032;SDS011;10675;47.976;7.824;2022-10-31T04:39:27;1.43;;;1.33;;
21032;SDS011;10675;47.976;7.824;2022-10-31T04:41:52;2.67;;;1.50;;
21032;SDS011;10675;47.976;7.824;2022-10-31T04:44:18;2.73;;;1.50;;
21032;SDS011;10675;47.976;7.824;2022-10-31T04:46:44;4.53;;;1.57;;
21032;SDS011;10675;47.976;7.824;2022-10-31T04:49:09;2.77;;;1.40;;
21032;SDS011;10675;47.976;7.824;2022-10-31T04:51:35;2.17;;;1.37;;
21032;SDS011;10675;47.976;7.824;2022-10-31T04:54:00;2.17;;;1.70;;
21032;SDS011;10675;47.976;7.824;2022-10-31T04:56:26;2.40;;;1.73;;
21032;SDS011;10675;47.976;7.824;2022-10-31T04:58:52;2.17;;;1.73;;
21032;SDS011;10675;47.976;7.824;2022-10-31T05:01:20;1.73;;;1.50;;
21032;SDS011;10675;47.976;7.824;2022-10-31T05:03:46;2.53;;;1.40;;
21032;SDS011;10675;47.976;7.824;2022-10-31T05:06:11;4.30;;;1.53;;
21032;SDS011;10675;47.976;7.824;2022-10-31T05:08:37;2.13;;;1.43;;
21032;SDS011;10675;47.976;7.824;2022-10-31T05:11:03;5.03;;;2.27;;
21032;SDS011;10675;47.976;7.824;2022-10-31T05:13:29;6.23;;;2.20;;
21032;SDS011;10675;47.976;7.824;2022-10-31T05:15:55;2.60;;;2.00;;
21032;SDS011;10675;47.976;7.824;2022-10-31T05:18:21;2.67;;;2.13;;
21032;SDS011;10675;47.976;7.824;2022-10-31T05:20:47;2.10;;;1.90;;
21032;SDS011;10675;47.976;7.824;2022-10-31T05:23:12;2.90;;;1.70;;
21032;SDS011;10675;47.976;7.824;2022-10-31T05:25:39;3.00;;;1.77;;
21032;SDS011;10675;47.976;7.824;2022-10-31T05:28:05;2.83;;;1.60;;
21032;SDS011;10675;47.976;7.824;2022-10-31T05:30:30;3.17;;;1.67;;
21032;SDS011;10675;47.976;7.824;2022-10-31T05:32:57;2.90;;;1.83;;
21032;SDS011;10675;47.976;7.824;2022-10-31T05:35:27;2.13;;;1.60;;
21032;SDS011;10675;47.976;7.824;2022-10-31T05:37:55;4.57;;;1.93;;
21032;SDS011;10675;47.976;7.824;2022-10-31T05:40:22;2.80;;;1.73;;
21032;SDS011;10675;47.976;7.824;2022-10-31T05:42:50;2.50;;;1.87;;
21032;SDS011;10675;47.976;7.824;2022-10-31T05:45:17;6.13;;;1.93;;
21032;SDS011;10675;47.976;7.824;2022-10-31T05:47:50;5.23;;;2.00;;
21032;SDS011;10675;47.976;7.824;2022-10-31T05:50:21;5.90;;;2.10;;
21032;SDS011;10675;47.976;7.824;2022-10-31T05:52:47;3.83;;;2.10;;
21032;SDS011;10675;47.976;7.824;2022-10-31T05:55:19;2.63;;;2.00;;
21032;SDS011;10675;47.976;7.824;2022-10-31T05:57:44;3.47;;;2.20;;
21032;SDS011;10675;47.976;7.824;2022-10-31T06:00:10;2.13;;;1.93;;
21032;SDS011;10675;47.976;7.824;2022-10-31T06:02:36;2.20;;;2.00;;
21032;SDS011;10675;47.976;7.824;2022-10-31T06:05:01;3.63;;;1.80;;
21032;SDS011;10675;47.976;7.824;2022-10-31T06:07:27;3.40;;;1.80;;
21032;SDS011;10675;47.976;7.824;2022-10-31T06:09:57;3.10;;;2.03;;
21032;SDS011;10675;47.976;7.824;2022-10-31T06:12:23;3.30;;;2.07;;
21032;SDS011;10675;47.976;7.824;2022-10-31T06:14:49;3.13;;;1.70;;
21032;SDS011;10675;47.976;7.824;2022-10-31T06:17:14;5.30;;;2.20;;
21032;SDS011;10675;47.976;7.824;2022-10-31T06:19:40;5.37;;;2.03;;
21032;SDS011;10675;47.976;7.824;2022-10-31T06:22:05;2.73;;;1.80;;
21032;SDS011;10675;47.976;7.824;2022-10-31T06:24:31;4.73;;;2.20;;
21032;SDS011;10675;47.976;7.824;2022-10-31T06:26:56;3.03;;;1.80;;
21032;SDS011;10675;47.976;7.824;2022-10-31T06:29:22;3.27;;;2.30;;
21032;SDS011;10675;47.976;7.824;2022-10-31T06:31:48;2.10;;;1.90;;
21032;SDS011;10675;47.976;7.824;2022-10-31T06:34:16;2.13;;;1.77;;
21032;SDS011;10675;47.976;7.824;2022-10-31T06:36:41;4.13;;;2.20;;
21032;SDS011;10675;47.976;7.824;2022-10-31T06:39:07;5.53;;;1.90;;
21032;SDS011;10675;47.976;7.824;2022-10-31T06:41:33;2.50;;;1.73;;
21032;SDS011;10675;47.976;7.824;2022-10-31T06:43:58;2.87;;;1.77;;
21032;SDS011;10675;47.976;7.824;2022-10-31T06:46:24;3.13;;;2.07;;
21032;SDS011;10675;47.976;7.824;2022-10-31T06:48:49;3.53;;;1.90;;
21032;SDS011;10675;47.976;7.824;2022-10-31T06:51:15;1.73;;;1.60;;
21032;SDS011;10675;47.976;7.824;2022-10-31T06:53:40;4.80;;;2.20;;
21032;SDS011;10675;47.976;7.824;2022-10-31T06:56:06;3.50;;;1.53;;
21032;SDS011;10675;47.976;7.824;2022-10-31T06:58:31;2.80;;;1.73;;
21032;SDS011;10675;47.976;7.824;2022-10-31T07:01:00;2.77;;;1.90;;
21032;SDS011;10675;47.976;7.824;2022-10-31T07:03:25;3.23;;;2.00;;
21032;SDS011;10675;47.976;7.824;2022-10-31T07:05:51;3.60;;;2.20;;
21032;SDS011;10675;47.976;7.824;2022-10-31T07:08:17;4.43;;;2.17;;
21032;SDS011;10675;47.976;7.824;2022-10-31T07:10:42;2.80;;;1.87;;
21032;SDS011;10675;47.976;7.824;2022-10-31T07:13:15;4.30;;;2.13;;
21032;SDS011;10675;47.976;7.824;2022-10-31T07:15:41;3.13;;;2.10;;
21032;SDS011;10675;47.976;7.824;2022-10-31T07:18:08;5.10;;;2.27;;
21032;SDS011;10675;47.976;7.824;2022-10-31T07:20:35;2.80;;;2.10;;
21032;SDS011;10675;47.976;7.824;2022-10-31T07:23:01;2.83;;;2.13;;
21032;SDS011;10675;47.976;7.824;2022-10-31T07:25:26;4.87;;;2.23;;
21032;SDS011;10675;47.976;7.824;2022-10-31T07:27:52;2.87;;;2.10;;
21032;SDS011;10675;47.976;7.824;2022-10-31T07:30:17;3.73;;;2.10;;
21032;SDS011;10675;47.976;7.824;2022-10-31T07:32:49;2.73;;;2.47;;
21032;SDS011;10675;47.976;7.824;2022-10-31T07:35:19;3.03;;;2.33;;
21032;SDS011;10675;47.976;7.824;2022-10-31T07:37:47;7.17;;;2.87;;
21032;SDS011;10675;47.976;7.824;2022-10-31T07:40:13;5.83;;;2.33;;
21032;SDS011;10675;47.976;7.824;2022-10-31T07:42:39;4.67;;;2.40;;
21032;SDS011;10675;47.976;7.824;2022-10-31T07:45:11;2.23;;;1.90;;
21032;SDS011;10675;47.976;7.824;2022-10-31T07:50:10;2.53;;;2.33;;
21032;SDS011;10675;47.976;7.824;2022-10-31T07:52:38;5.13;;;2.57;;
21032;SDS011;10675;47.976;7.824;2022-10-31T07:55:04;4.50;;;3.27;;
21032;SDS011;10675;47.976;7.824;2022-10-31T07:57:30;12.97;;;6.43;;
21032;SDS011;10675;47.976;7.824;2022-10-31T07:59:56;7.37;;;4.07;;
21032;SDS011;10675;47.976;7.824;2022-10-31T08:02:22;7.10;;;3.53;;
21032;SDS011;10675;47.976;7.824;2022-10-31T08:04:48;6.20;;;3.50;;
21032;SDS011;10675;47.976;7.824;2022-10-31T08:07:14;6.37;;;3.10;;
21032;SDS011;10675;47.976;7.824;2022-10-31T08:09:39;7.63;;;2.73;;
21032;SDS011;10675;47.976;7.824;2022-10-31T08:12:05;6.17;;;2.60;;
21032;SDS011;10675;47.976;7.824;2022-10-31T08:14:30;2.73;;;2.53;;
21032;SDS011;10675;47.976;7.824;2022-10-31T08:16:56;5.47;;;3.10;;
21032;SDS011;10675;47.976;7.824;2022-10-31T08:19:22;4.57;;;2.63;;
21032;SDS011;10675;47.976;7.824;2022-10-31T08:21:50;4.90;;;2.60;;
21032;SDS011;10675;47.976;7.824;2022-10-31T08:24:16;3.60;;;2.07;;
21032;SDS011;10675;47.976;7.824;2022-10-31T08:26:42;6.53;;;2.70;;
21032;SDS011;10675;47.976;7.824;2022-10-31T08:29:07;4.67;;;2.30;;
21032;SDS011;10675;47.976;7.824;2022-10-31T08:31:33;4.00;;;2.63;;
21032;SDS011;10675;47.976;7.824;2022-10-31T08:33:58;6.47;;;2.53;;
21032;SDS011;10675;47.976;7.824;2022-10-31T08:36:24;8.00;;;2.40;;
21032;SDS011;10675;47.976;7.824;2022-10-31T08:38:49;4.53;;;2.40;;
21032;SDS011;10675;47.976;7.824;2022-10-31T08:41:15;3.03;;;2.30;;
21032;SDS011;10675;47.976;7.824;2022-10-31T08:43:40;3.57;;;2.40;;
21032;SDS011;10675;47.976;7.824;2022-10-31T08:46:06;4.97;;;2.57;;
21032;SDS011;10675;47.976;7.824;2022-10-31T08:48:32;3.43;;;2.40;;
21032;SDS011;10675;47.976;7.824;2022-10-31T08:50:58;5.53;;;2.37;;
21032;SDS011;10675;47.976;7.824;2022-10-31T08:53:24;4.13;;;2.57;;
21032;SDS011;10675;47.976;7.824;2022-10-31T08:55:50;3.33;;;2.40;;
21032;SDS011;10675;47.976;7.824;2022-10-31T08:58:16;3.83;;;2.30;;
21032;SDS011;10675;47.976;7.824;2022-10-31T09:00:44;5.47;;;2.90;;
21032;SDS011;10675;47.976;7.824;2022-10-31T09:03:23;4.70;;;2.80;;
21032;SDS011;10675;47.976;7.824;2022-10-31T09:05:50;5.10;;;2.57;;
21032;SDS011;10675;47.976;7.824;2022-10-31T09:08:19;3.93;;;2.20;;
21032;SDS011;10675;47.976;7.824;2022-10-31T09:10:45;6.67;;;2.97;;
21032;SDS011;10675;47.976;7.824;2022-10-31T09:13:12;5.60;;;2.50;;
21032;SDS011;10675;47.976;7.824;2022-10-31T09:15:39;10.00;;;2.57;;
21032;SDS011;10675;47.976;7.824;2022-10-31T09:18:07;5.83;;;2.80;;
21032;SDS011;10675;47.976;7.824;2022-10-31T09:20:34;6.87;;;2.40;;
21032;SDS011;10675;47.976;7.824;2022-10-31T09:23:02;8.27;;;2.30;;
21032;SDS011;10675;47.976;7.824;2022-10-31T09:25:47;6.20;;;2.50;;
21032;SDS011;10675;47.976;7.824;2022-10-31T09:28:15;2.37;;;2.13;;
21032;SDS011;10675;47.976;7.824;2022-10-31T09:30:45;6.63;;;2.50;;
21032;SDS011;10675;47.976;7.824;2022-10-31T09:33:12;3.90;;;2.27;;
21032;SDS011;10675;47.976;7.824;2022-10-31T09:35:38;5.13;;;2.93;;
21032;SDS011;10675;47.976;7.824;2022-10-31T09:38:05;6.43;;;2.67;;
21032;SDS011;10675;47.976;7.824;2022-10-31T09:40:46;6.23;;;2.43;;
21032;SDS011;10675;47.976;7.824;2022-10-31T09:51:20;4.93;;;2.37;;
21032;SDS011;10675;47.976;7.824;2022-10-31T09:53:51;4.50;;;2.70;;
21032;SDS011;10675;47.976;7.824;2022-10-31T09:56:25;8.17;;;3.33;;
21032;SDS011;10675;47.976;7.824;2022-10-31T09:58:56;3.73;;;2.63;;
21032;SDS011;10675;47.976;7.824;2022-10-31T10:06:42;10.43;;;3.93;;
21032;SDS011;10675;47.976;7.824;2022-10-31T10:09:11;6.90;;;3.20;;
21032;SDS011;10675;47.976;7.824;2022-10-31T10:19:44;5.57;;;3.67;;
21032;SDS011;10675;47.976;7.824;2022-10-31T10:28:02;4.17;;;2.70;;
21032;SDS011;10675;47.976;7.824;2022-10-31T10:30:38;9.97;;;3.73;;
21032;SDS011;10675;47.976;7.824;2022-10-31T10:36:02;6.63;;;3.03;;
21032;SDS011;10675;47.976;7.824;2022-10-31T10:38:36;5.73;;;3.60;;
21032;SDS011;10675;47.976;7.824;2022-10-31T10:41:19;6.40;;;3.30;;
21032;SDS011;10675;47.976;7.824;2022-10-31T10:43:50;6.43;;;3.07;;
21032;SDS011;10675;47.976;7.824;2022-10-31T10:46:17;4.80;;;3.00;;
21032;SDS011;10675;47.976;7.824;2022-10-31T10:49:32;5.70;;;3.40;;
21032;SDS011;10675;47.976;7.824;2022-10-31T10:52:22;9.63;;;4.10;;
21032;SDS011;10675;47.976;7.824;2022-10-31T11:00:19;6.83;;;4.30;;
21032;SDS011;10675;47.976;7.824;2022-10-31T11:02:49;8.67;;;3.63;;
21032;SDS011;10675;47.976;7.824;2022-10-31T11:05:20;7.00;;;3.60;;
21032;SDS011;10675;47.976;7.824;2022-10-31T11:07:49;7.40;;;3.63;;
21032;SDS011;10675;47.976;7.824;2022-10-31T11:10:15;5.03;;;3.67;;
21032;SDS011;10675;47.976;7.824;2022-10-31T11:12:42;8.53;;;3.67;;
21032;SDS011;10675;47.976;7.824;2022-10-31T11:15:21;6.37;;;3.97;;
21032;SDS011;10675;47.976;7.824;2022-10-31T11:17:50;5.20;;;4.03;;
21032;SDS011;10675;47.976;7.824;2022-10-31T11:22:44;7.80;;;3.70;;
21032;SDS011;10675;47.976;7.824;2022-10-31T11:25:24;11.50;;;3.90;;
21032;SDS011;10675;47.976;7.824;2022-10-31T11:28:04;7.73;;;3.57;;
21032;SDS011;10675;47.976;7.824;2022-10-31T11:30:53;5.37;;;3.20;;
21032;SDS011;10675;47.976;7.824;2022-10-31T11:35:56;3.80;;;3.03;;
21032;SDS011;10675;47.976;7.824;2022-10-31T11:38:23;9.93;;;3.40;;
21032;SDS011;10675;47.976;7.824;2022-10-31T11:41:04;8.63;;;3.60;;
21032;SDS011;10675;47.976;7.824;2022-10-31T11:43:38;4.83;;;3.00;;
21032;SDS011;10675;47.976;7.824;2022-10-31T11:46:08;5.73;;;3.13;;
21032;SDS011;10675;47.976;7.824;2022-10-31T11:48:36;4.35;;;2.97;;
21032;SDS011;10675;47.976;7.824;2022-10-31T11:51:02;6.30;;;3.00;;
21032;SDS011;10675;47.976;7.824;2022-10-31T11:53:30;5.73;;;2.87;;
21032;SDS011;10675;47.976;7.824;2022-10-31T11:56:14;6.83;;;2.80;;
21032;SDS011;10675;47.976;7.824;2022-10-31T11:58:41;5.37;;;2.80;;
21032;SDS011;10675;47.976;7.824;2022-10-31T12:01:20;6.97;;;3.20;;
21032;SDS011;10675;47.976;7.824;2022-10-31T12:03:54;4.75;;;3.28;;
21032;SDS011;10675;47.976;7.824;2022-10-31T12:06:37;5.20;;;2.80;;
21032;SDS011;10675;47.976;7.824;2022-10-31T12:17:51;6.10;;;2.97;;
21032;SDS011;10675;47.976;7.824;2022-10-31T12:23:18;6.53;;;3.03;;
21032;SDS011;10675;47.976;7.824;2022-10-31T12:29:45;6.13;;;3.07;;
21032;SDS011;10675;47.976;7.824;2022-10-31T12:37:05;5.00;;;2.83;;
21032;SDS011;10675;47.976;7.824;2022-10-31T12:50:32;6.82;;;2.55;;
21032;SDS011;10675;47.976;7.824;2022-10-31T12:55:45;4.53;;;2.92;;
21032;SDS011;10675;47.976;7.824;2022-10-31T13:01:08;7.13;;;2.63;;
21032;SDS011;10675;47.976;7.824;2022-10-31T13:06:13;7.35;;;2.90;;
21032;SDS011;10675;47.976;7.824;2022-10-31T13:09:05;4.88;;;2.80;;
21032;SDS011;10675;47.976;7.824;2022-10-31T13:11:35;6.97;;;3.05;;
21032;SDS011;10675;47.976;7.824;2022-10-31T13:16:43;5.45;;;2.83;;
21032;SDS011;10675;47.976;7.824;2022-10-31T13:27:17;7.05;;;2.97;;
21032;SDS011;10675;47.976;7.824;2022-10-31T13:30:01;5.45;;;2.75;;
21032;SDS011;10675;47.976;7.824;2022-10-31T13:32:28;3.33;;;2.58;;
21032;SDS011;10675;47.976;7.824;2022-10-31T13:35:10;8.43;;;2.78;;
21032;SDS011;10675;47.976;7.824;2022-10-31T13:37:58;4.63;;;3.00;;
21032;SDS011;10675;47.976;7.824;2022-10-31T13:40:56;7.40;;;3.23;;
21032;SDS011;10675;47.976;7.824;2022-10-31T13:46:21;6.90;;;3.22;;
21032;SDS011;10675;47.976;7.824;2022-10-31T13:48:49;8.63;;;3.05;;
21032;SDS011;10675;47.976;7.824;2022-10-31T13:51:23;6.45;;;2.95;;
21032;SDS011;10675;47.976;7.824;2022-10-31T13:59:05;7.72;;;3.03;;
21032;SDS011;10675;47.976;7.824;2022-10-31T14:04:24;4.97;;;2.75;;
21032;SDS011;10675;47.976;7.824;2022-10-31T14:07:08;6.95;;;3.05;;
21032;SDS011;10675;47.976;7.824;2022-10-31T14:12:23;5.93;;;2.75;;
21032;SDS011;10675;47.976;7.824;2022-10-31T14:15:00;5.88;;;2.70;;
21032;SDS011;10675;47.976;7.824;2022-10-31T14:18:04;9.17;;;2.77;;
21032;SDS011;10675;47.976;7.824;2022-10-31T14:20:41;6.43;;;2.60;;
21032;SDS011;10675;47.976;7.824;2022-10-31T14:23:12;4.70;;;2.70;;
21032;SDS011;10675;47.976;7.824;2022-10-31T14:26:33;8.27;;;3.65;;
21032;SDS011;10675;47.976;7.824;2022-10-31T14:28:51;5.13;;;3.20;;
21032;SDS011;10675;47.976;7.824;2022-10-31T14:31:29;7.50;;;3.08;;
21032;SDS011;10675;47.976;7.824;2022-10-31T14:34:06;5.65;;;2.90;;
21032;SDS011;10675;47.976;7.824;2022-10-31T14:45:35;7.23;;;3.30;;
21032;SDS011;10675;47.976;7.824;2022-10-31T14:50:58;8.30;;;3.53;;
21032;SDS011;10675;47.976;7.824;2022-10-31T14:55:52;10.23;;;4.10;;
21032;SDS011;10675;47.976;7.824;2022-10-31T14:58:20;7.90;;;3.60;;
21032;SDS011;10675;47.976;7.824;2022-10-31T15:00:49;12.60;;;3.97;;
21032;SDS011;10675;47.976;7.824;2022-10-31T15:03:22;5.70;;;3.77;;
21032;SDS011;10675;47.976;7.824;2022-10-31T15:05:53;7.83;;;3.60;;
21032;SDS011;10675;47.976;7.824;2022-10-31T15:10:58;9.50;;;3.77;;
21032;SDS011;10675;47.976;7.824;2022-10-31T15:13:23;5.90;;;3.38;;
21032;SDS011;10675;47.976;7.824;2022-10-31T15:15:49;5.45;;;3.70;;
21032;SDS011;10675;47.976;7.824;2022-10-31T15:18:20;8.57;;;3.30;;
21032;SDS011;10675;47.976;7.824;2022-10-31T15:20:48;8.05;;;3.80;;
21032;SDS011;10675;47.976;7.824;2022-10-31T15:23:25;5.90;;;3.40;;
21032;SDS011;10675;47.976;7.824;2022-10-31T15:26:03;8.38;;;4.35;;
21032;SDS011;10675;47.976;7.824;2022-10-31T15:28:30;7.80;;;3.50;;
21032;SDS011;10675;47.976;7.824;2022-10-31T15:30:57;9.23;;;3.60;;
21032;SDS011;10675;47.976;7.824;2022-10-31T15:33:31;7.40;;;3.60;;
21032;SDS011;10675;47.976;7.824;2022-10-31T15:36:04;6.30;;;3.60;;
21032;SDS011;10675;47.976;7.824;2022-10-31T15:38:30;5.10;;;3.70;;
21032;SDS011;10675;47.976;7.824;2022-10-31T15:40:59;7.60;;;4.10;;
21032;SDS011;10675;47.976;7.824;2022-10-31T15:43:32;8.30;;;4.07;;
21032;SDS011;10675;47.976;7.824;2022-10-31T15:46:01;6.60;;;3.97;;
21032;SDS011;10675;47.976;7.824;2022-10-31T15:48:29;8.53;;;3.43;;
21032;SDS011;10675;47.976;7.824;2022-10-31T15:50:57;5.37;;;3.30;;
21032;SDS011;10675;47.976;7.824;2022-10-31T15:53:28;10.80;;;3.80;;
21032;SDS011;10675;47.976;7.824;2022-10-31T15:56:02;6.20;;;3.47;;
21032;SDS011;10675;47.976;7.824;2022-10-31T15:58:32;5.70;;;3.43;;
21032;SDS011;10675;47.976;7.824;2022-10-31T16:01:19;6.00;;;3.70;;
21032;SDS011;10675;47.976;7.824;2022-10-31T16:04:05;7.77;;;3.50;;
21032;SDS011;10675;47.976;7.824;2022-10-31T16:12:16;6.83;;;3.80;;
21032;SDS011;10675;47.976;7.824;2022-10-31T16:14:42;6.83;;;3.67;;
21032;SDS011;10675;47.976;7.824;2022-10-31T16:17:11;6.20;;;3.83;;
21032;SDS011;10675;47.976;7.824;2022-10-31T16:19:44;5.67;;;3.30;;
21032;SDS011;10675;47.976;7.824;2022-10-31T16:22:24;4.30;;;3.43;;
21032;SDS011;10675;47.976;7.824;2022-10-31T16:25:14;7.27;;;4.33;;
21032;SDS011;10675;47.976;7.824;2022-10-31T16:27:48;8.20;;;4.50;;
21032;SDS011;10675;47.976;7.824;2022-10-31T16:30:30;5.83;;;4.33;;
21032;SDS011;10675;47.976;7.824;2022-10-31T16:33:49;9.13;;;4.17;;
21032;SDS011;10675;47.976;7.824;2022-10-31T16:35:59;6.00;;;3.97;;
21032;SDS011;10675;47.976;7.824;2022-10-31T16:38:27;12.23;;;4.47;;
21032;SDS011;10675;47.976;7.824;2022-10-31T16:40:52;10.17;;;4.37;;
21032;SDS011;10675;47.976;7.824;2022-10-31T16:43:19;9.57;;;4.13;;
21032;SDS011;10675;47.976;7.824;2022-10-31T16:45:48;8.73;;;4.20;;
21032;SDS011;10675;47.976;7.824;2022-10-31T16:48:19;11.17;;;4.30;;
21032;SDS011;10675;47.976;7.824;2022-10-31T16:50:47;11.43;;;5.30;;
21032;SDS011;10675;47.976;7.824;2022-10-31T16:53:14;9.60;;;4.73;;
21032;SDS011;10675;47.976;7.824;2022-10-31T16:55:51;10.60;;;4.50;;
21032;SDS011;10675;47.976;7.824;2022-10-31T16:58:21;7.17;;;4.33;;
21032;SDS011;10675;47.976;7.824;2022-10-31T17:00:50;9.47;;;5.13;;
21032;SDS011;10675;47.976;7.824;2022-10-31T17:03:16;7.23;;;5.47;;
21032;SDS011;10675;47.976;7.824;2022-10-31T17:05:42;10.53;;;5.57;;
21032;SDS011;10675;47.976;7.824;2022-10-31T17:08:07;7.77;;;4.67;;
21032;SDS011;10675;47.976;7.824;2022-10-31T17:10:33;7.90;;;4.23;;
21032;SDS011;10675;47.976;7.824;2022-10-31T17:13:00;7.97;;;4.67;;
21032;SDS011;10675;47.976;7.824;2022-10-31T17:15:27;10.77;;;5.37;;
21032;SDS011;10675;47.976;7.824;2022-10-31T17:17:56;10.87;;;5.13;;
21032;SDS011;10675;47.976;7.824;2022-10-31T17:20:23;12.50;;;5.73;;
21032;SDS011;10675;47.976;7.824;2022-10-31T17:22:51;8.53;;;5.13;;
21032;SDS011;10675;47.976;7.824;2022-10-31T17:25:18;10.90;;;5.20;;
21032;SDS011;10675;47.976;7.824;2022-10-31T17:27:46;6.57;;;5.03;;
21032;SDS011;10675;47.976;7.824;2022-10-31T17:30:13;13.03;;;5.43;;
21032;SDS011;10675;47.976;7.824;2022-10-31T17:32:39;12.13;;;7.60;;
21032;SDS011;10675;47.976;7.824;2022-10-31T17:35:07;14.00;;;6.70;;
21032;SDS011;10675;47.976;7.824;2022-10-31T17:37:33;9.17;;;5.10;;